sensor_id;sensor_type;location;lat;lon;timestamp;temperature;humidity
42085;DHT22;27746;52.228;20.890;2022-10-13T00:01:59;9.90;99.90
42085;DHT22;27746;52.228;20.890;2022-10-13T00:04:47;9.80;99.90
42085;DHT22;27746;52.228;20.890;2022-10-13T00:07:15;9.80;99.90
42085;DHT22;27746;52.228;20.890;2022-10-13T00:09:51;9.80;99.90
42085;DHT22;27746;52.228;20.890;2022-10-13T00:12:24;9.80;99.90
42085;DHT22;27746;52.228;20.890;2022-10-13T00:14:51;9.80;99.90
42085;DHT22;27746;52.228;20.890;2022-10-13T00:17:18;9.70;99.90
42085;DHT22;27746;52.228;20.890;2022-10-13T00:19:45;9.70;99.90
42085;DHT22;27746;52.228;20.890;2022-10-13T00:22:12;9.70;99.90
42085;DHT22;27746;52.228;20.890;2022-10-13T00:24:41;9.70;99.90
42085;DHT22;27746;52.228;20.890;2022-10-13T00:27:11;9.70;99.90
42085;DHT22;27746;52.228;20.890;2022-10-13T00:29:38;9.70;99.90
42085;DHT22;27746;52.228;20.890;2022-10-13T00:32:05;9.70;99.90
42085;DHT22;27746;52.228;20.890;2022-10-13T00:34:31;9.60;99.90
42085;DHT22;27746;52.228;20.890;2022-10-13T00:36:59;9.60;99.90
42085;DHT22;27746;52.228;20.890;2022-10-13T00:39:26;9.60;99.90
42085;DHT22;27746;52.228;20.890;2022-10-13T00:41:55;9.60;99.90
42085;DHT22;27746;52.228;20.890;2022-10-13T00:45:00;9.50;99.90
42085;DHT22;27746;52.228;20.890;2022-10-13T00:47:32;9.50;99.90
42085;DHT22;27746;52.228;20.890;2022-10-13T00:50:09;9.50;99.90
42085;DHT22;27746;52.228;20.890;2022-10-13T00:52:38;9.40;99.90
42085;DHT22;27746;52.228;20.890;2022-10-13T00:55:08;9.50;99.90
42085;DHT22;27746;52.228;20.890;2022-10-13T00:57:41;9.50;99.90
42085;DHT22;27746;52.228;20.890;2022-10-13T01:00:17;9.40;99.90
42085;DHT22;27746;52.228;20.890;2022-10-13T01:02:47;9.30;99.90
42085;DHT22;27746;52.228;20.890;2022-10-13T01:05:14;9.30;99.90
42085;DHT22;27746;52.228;20.890;2022-10-13T01:07:41;9.40;99.90
42085;DHT22;27746;52.228;20.890;2022-10-13T01:10:09;9.40;99.90
42085;DHT22;27746;52.228;20.890;2022-10-13T01:12:45;9.30;99.90
42085;DHT22;27746;52.228;20.890;2022-10-13T01:15:21;9.30;99.90
42085;DHT22;27746;52.228;20.890;2022-10-13T01:17:58;9.30;99.90
42085;DHT22;27746;52.228;20.890;2022-10-13T01:20:42;9.20;99.90
42085;DHT22;27746;52.228;20.890;2022-10-13T01:23:44;9.20;99.90
42085;DHT22;27746;52.228;20.890;2022-10-13T01:26:32;9.10;99.90
42085;DHT22;27746;52.228;20.890;2022-10-13T01:29:11;9.10;99.90
42085;DHT22;27746;52.228;20.890;2022-10-13T01:31:45;9.10;99.90
42085;DHT22;27746;52.228;20.890;2022-10-13T01:34:17;9.00;99.90
42085;DHT22;27746;52.228;20.890;2022-10-13T01:36:51;9.00;99.90
42085;DHT22;27746;52.228;20.890;2022-10-13T01:39:24;8.90;99.90
42085;DHT22;27746;52.228;20.890;2022-10-13T01:41:56;8.90;99.90
42085;DHT22;27746;52.228;20.890;2022-10-13T01:44:30;8.90;99.90
42085;DHT22;27746;52.228;20.890;2022-10-13T01:47:00;8.80;99.90
42085;DHT22;27746;52.228;20.890;2022-10-13T01:49:30;8.80;99.90
42085;DHT22;27746;52.228;20.890;2022-10-13T01:52:00;8.80;99.90
42085;DHT22;27746;52.228;20.890;2022-10-13T01:54:28;8.80;99.90
42085;DHT22;27746;52.228;20.890;2022-10-13T01:56:55;8.70;99.90
42085;DHT22;27746;52.228;20.890;2022-10-13T01:59:24;8.80;99.90
42085;DHT22;27746;52.228;20.890;2022-10-13T02:02:02;8.70;99.90
42085;DHT22;27746;52.228;20.890;2022-10-13T02:04:44;8.80;99.90
42085;DHT22;27746;52.228;20.890;2022-10-13T02:07:18;8.70;99.90
42085;DHT22;27746;52.228;20.890;2022-10-13T02:09:53;8.70;99.90
42085;DHT22;27746;52.228;20.890;2022-10-13T02:12:26;8.70;99.90
42085;DHT22;27746;52.228;20.890;2022-10-13T02:14:56;8.70;99.90
42085;DHT22;27746;52.228;20.890;2022-10-13T02:17:27;8.70;99.90
42085;DHT22;27746;52.228;20.890;2022-10-13T02:19:54;8.70;99.90
42085;DHT22;27746;52.228;20.890;2022-10-13T02:22:25;8.70;99.90
42085;DHT22;27746;52.228;20.890;2022-10-13T02:24:53;8.60;99.90
42085;DHT22;27746;52.228;20.890;2022-10-13T02:27:20;8.70;99.90
42085;DHT22;27746;52.228;20.890;2022-10-13T02:29:49;8.60;99.90
42085;DHT22;27746;52.228;20.890;2022-10-13T02:32:16;8.60;99.90
42085;DHT22;27746;52.228;20.890;2022-10-13T02:34:44;8.60;99.90
42085;DHT22;27746;52.228;20.890;2022-10-13T02:37:11;8.60;99.90
42085;DHT22;27746;52.228;20.890;2022-10-13T02:39:38;8.60;99.90
42085;DHT22;27746;52.228;20.890;2022-10-13T02:42:05;8.60;99.90
42085;DHT22;27746;52.228;20.890;2022-10-13T02:44:32;8.60;99.90
42085;DHT22;27746;52.228;20.890;2022-10-13T02:46:59;8.60;99.90
42085;DHT22;27746;52.228;20.890;2022-10-13T02:49:26;8.60;99.90
42085;DHT22;27746;52.228;20.890;2022-10-13T02:51:54;8.50;99.90
42085;DHT22;27746;52.228;20.890;2022-10-13T02:54:21;8.50;99.90
42085;DHT22;27746;52.228;20.890;2022-10-13T02:56:48;8.50;99.90
42085;DHT22;27746;52.228;20.890;2022-10-13T02:59:15;8.50;99.90
42085;DHT22;27746;52.228;20.890;2022-10-13T03:01:42;8.50;99.90
42085;DHT22;27746;52.228;20.890;2022-10-13T03:04:10;8.50;99.90
42085;DHT22;27746;52.228;20.890;2022-10-13T03:06:37;8.50;99.90
42085;DHT22;27746;52.228;20.890;2022-10-13T03:09:05;8.50;99.90
42085;DHT22;27746;52.228;20.890;2022-10-13T03:11:32;8.50;99.90
42085;DHT22;27746;52.228;20.890;2022-10-13T03:13:59;8.50;99.90
42085;DHT22;27746;52.228;20.890;2022-10-13T03:16:26;8.40;99.90
42085;DHT22;27746;52.228;20.890;2022-10-13T03:18:52;8.40;99.90
42085;DHT22;27746;52.228;20.890;2022-10-13T03:21:19;8.40;99.90
42085;DHT22;27746;52.228;20.890;2022-10-13T03:23:46;8.50;99.90
42085;DHT22;27746;52.228;20.890;2022-10-13T03:26:14;8.50;99.90
42085;DHT22;27746;52.228;20.890;2022-10-13T03:28:41;8.40;99.90
42085;DHT22;27746;52.228;20.890;2022-10-13T03:31:10;8.40;99.90
42085;DHT22;27746;52.228;20.890;2022-10-13T03:33:39;9.20;99.90
42085;DHT22;27746;52.228;20.890;2022-10-13T03:36:06;8.40;99.90
42085;DHT22;27746;52.228;20.890;2022-10-13T03:38:34;8.40;99.90
42085;DHT22;27746;52.228;20.890;2022-10-13T03:41:04;8.40;99.90
42085;DHT22;27746;52.228;20.890;2022-10-13T03:43:32;8.40;99.90
42085;DHT22;27746;52.228;20.890;2022-10-13T03:46:01;8.40;99.90
42085;DHT22;27746;52.228;20.890;2022-10-13T03:48:28;8.40;99.90
42085;DHT22;27746;52.228;20.890;2022-10-13T03:50:56;8.30;99.90
42085;DHT22;27746;52.228;20.890;2022-10-13T03:53:24;8.30;99.90
42085;DHT22;27746;52.228;20.890;2022-10-13T03:55:53;8.30;99.90
42085;DHT22;27746;52.228;20.890;2022-10-13T03:58:21;8.30;99.90
42085;DHT22;27746;52.228;20.890;2022-10-13T04:00:50;8.30;99.90
42085;DHT22;27746;52.228;20.890;2022-10-13T04:03:17;8.30;99.90
42085;DHT22;27746;52.228;20.890;2022-10-13T04:05:45;8.30;99.90
42085;DHT22;27746;52.228;20.890;2022-10-13T04:08:12;8.30;99.90
42085;DHT22;27746;52.228;20.890;2022-10-13T04:10:39;8.20;99.90
42085;DHT22;27746;52.228;20.890;2022-10-13T04:13:07;8.20;99.90
42085;DHT22;27746;52.228;20.890;2022-10-13T04:15:38;8.20;99.90
42085;DHT22;27746;52.228;20.890;2022-10-13T04:18:07;8.20;99.90
42085;DHT22;27746;52.228;20.890;2022-10-13T04:20:36;8.20;99.90
42085;DHT22;27746;52.228;20.890;2022-10-13T04:23:04;8.10;99.90
42085;DHT22;27746;52.228;20.890;2022-10-13T04:25:33;8.10;99.90
42085;DHT22;27746;52.228;20.890;2022-10-13T04:28:01;8.10;99.90
42085;DHT22;27746;52.228;20.890;2022-10-13T04:30:28;8.00;99.90
42085;DHT22;27746;52.228;20.890;2022-10-13T04:32:54;8.00;99.90
42085;DHT22;27746;52.228;20.890;2022-10-13T04:35:23;8.00;99.90
42085;DHT22;27746;52.228;20.890;2022-10-13T04:37:50;7.90;99.90
42085;DHT22;27746;52.228;20.890;2022-10-13T04:40:17;8.00;99.90
42085;DHT22;27746;52.228;20.890;2022-10-13T04:42:44;7.90;99.90
42085;DHT22;27746;52.228;20.890;2022-10-13T04:45:11;7.90;99.90
42085;DHT22;27746;52.228;20.890;2022-10-13T04:47:37;7.80;99.90
42085;DHT22;27746;52.228;20.890;2022-10-13T04:50:05;7.80;99.90
42085;DHT22;27746;52.228;20.890;2022-10-13T04:52:34;7.80;99.90
42085;DHT22;27746;52.228;20.890;2022-10-13T04:55:01;7.80;99.90
42085;DHT22;27746;52.228;20.890;2022-10-13T04:57:28;7.70;99.90
42085;DHT22;27746;52.228;20.890;2022-10-13T04:59:55;7.70;99.90
42085;DHT22;27746;52.228;20.890;2022-10-13T05:02:23;7.70;99.90
42085;DHT22;27746;52.228;20.890;2022-10-13T05:04:50;7.60;99.90
42085;DHT22;27746;52.228;20.890;2022-10-13T05:07:16;7.60;99.90
42085;DHT22;27746;52.228;20.890;2022-10-13T05:09:45;7.60;99.90
42085;DHT22;27746;52.228;20.890;2022-10-13T05:12:12;4.80;99.90
42085;DHT22;27746;52.228;20.890;2022-10-13T05:14:39;7.60;99.90
42085;DHT22;27746;52.228;20.890;2022-10-13T05:17:06;7.60;99.90
42085;DHT22;27746;52.228;20.890;2022-10-13T05:19:33;7.60;99.90
42085;DHT22;27746;52.228;20.890;2022-10-13T05:21:59;7.60;99.90
42085;DHT22;27746;52.228;20.890;2022-10-13T05:24:28;7.60;99.90
42085;DHT22;27746;52.228;20.890;2022-10-13T05:27:03;7.60;99.90
42085;DHT22;27746;52.228;20.890;2022-10-13T05:29:30;7.60;99.90
42085;DHT22;27746;52.228;20.890;2022-10-13T05:31:57;7.70;99.90
42085;DHT22;27746;52.228;20.890;2022-10-13T05:34:25;7.70;99.90
42085;DHT22;27746;52.228;20.890;2022-10-13T05:36:51;7.80;99.90
42085;DHT22;27746;52.228;20.890;2022-10-13T05:39:18;7.80;99.90
42085;DHT22;27746;52.228;20.890;2022-10-13T05:41:45;7.90;99.90
42085;DHT22;27746;52.228;20.890;2022-10-13T05:44:14;7.90;99.90
42085;DHT22;27746;52.228;20.890;2022-10-13T05:46:42;7.90;99.90
42085;DHT22;27746;52.228;20.890;2022-10-13T05:49:09;8.00;99.90
42085;DHT22;27746;52.228;20.890;2022-10-13T05:51:39;8.00;99.90
42085;DHT22;27746;52.228;20.890;2022-10-13T05:54:11;8.00;99.90
42085;DHT22;27746;52.228;20.890;2022-10-13T05:56:41;8.00;99.90
42085;DHT22;27746;52.228;20.890;2022-10-13T05:59:12;8.10;99.90
42085;DHT22;27746;52.228;20.890;2022-10-13T06:01:42;8.10;99.90
42085;DHT22;27746;52.228;20.890;2022-10-13T06:04:13;8.20;99.90
42085;DHT22;27746;52.228;20.890;2022-10-13T06:06:41;8.30;99.90
42085;DHT22;27746;52.228;20.890;2022-10-13T06:09:09;8.30;99.90
42085;DHT22;27746;52.228;20.890;2022-10-13T06:11:36;8.40;99.90
42085;DHT22;27746;52.228;20.890;2022-10-13T06:14:03;8.40;99.90
42085;DHT22;27746;52.228;20.890;2022-10-13T06:16:30;8.50;99.90
42085;DHT22;27746;52.228;20.890;2022-10-13T06:18:59;8.60;99.90
42085;DHT22;27746;52.228;20.890;2022-10-13T06:21:26;8.60;99.90
42085;DHT22;27746;52.228;20.890;2022-10-13T06:23:53;8.70;99.90
42085;DHT22;27746;52.228;20.890;2022-10-13T06:26:20;8.80;99.90
42085;DHT22;27746;52.228;20.890;2022-10-13T06:28:47;8.90;99.90
42085;DHT22;27746;52.228;20.890;2022-10-13T06:31:14;9.00;99.90
42085;DHT22;27746;52.228;20.890;2022-10-13T06:33:41;9.00;99.90
42085;DHT22;27746;52.228;20.890;2022-10-13T06:36:10;9.10;99.90
42085;DHT22;27746;52.228;20.890;2022-10-13T06:38:37;9.30;99.90
42085;DHT22;27746;52.228;20.890;2022-10-13T06:41:04;9.40;99.90
42085;DHT22;27746;52.228;20.890;2022-10-13T06:43:32;9.50;99.90
42085;DHT22;27746;52.228;20.890;2022-10-13T06:45:59;9.60;99.90
42085;DHT22;27746;52.228;20.890;2022-10-13T06:48:27;9.80;99.90
42085;DHT22;27746;52.228;20.890;2022-10-13T06:50:54;10.00;99.90
42085;DHT22;27746;52.228;20.890;2022-10-13T06:53:22;10.30;99.90
42085;DHT22;27746;52.228;20.890;2022-10-13T06:55:49;10.40;99.90
42085;DHT22;27746;52.228;20.890;2022-10-13T06:58:16;10.60;99.90
42085;DHT22;27746;52.228;20.890;2022-10-13T07:00:43;10.70;99.90
42085;DHT22;27746;52.228;20.890;2022-10-13T07:03:10;10.90;99.90
42085;DHT22;27746;52.228;20.890;2022-10-13T07:05:37;11.00;99.90
42085;DHT22;27746;52.228;20.890;2022-10-13T07:08:04;11.10;99.90
42085;DHT22;27746;52.228;20.890;2022-10-13T07:10:33;11.20;99.90
42085;DHT22;27746;52.228;20.890;2022-10-13T07:13:00;11.30;99.90
42085;DHT22;27746;52.228;20.890;2022-10-13T07:15:27;11.40;99.90
42085;DHT22;27746;52.228;20.890;2022-10-13T07:17:53;11.50;99.90
42085;DHT22;27746;52.228;20.890;2022-10-13T07:20:21;11.60;99.90
42085;DHT22;27746;52.228;20.890;2022-10-13T07:22:51;11.60;99.90
42085;DHT22;27746;52.228;20.890;2022-10-13T07:25:19;11.70;99.90
42085;DHT22;27746;52.228;20.890;2022-10-13T07:27:47;11.90;99.90
42085;DHT22;27746;52.228;20.890;2022-10-13T07:30:14;12.00;99.90
42085;DHT22;27746;52.228;20.890;2022-10-13T07:32:41;12.20;99.90
42085;DHT22;27746;52.228;20.890;2022-10-13T07:35:10;12.30;99.90
42085;DHT22;27746;52.228;20.890;2022-10-13T07:37:37;10.30;99.60
42085;DHT22;27746;52.228;20.890;2022-10-13T07:40:05;12.50;99.90
42085;DHT22;27746;52.228;20.890;2022-10-13T07:42:33;12.60;99.90
42085;DHT22;27746;52.228;20.890;2022-10-13T07:45:01;12.70;99.80
42085;DHT22;27746;52.228;20.890;2022-10-13T07:47:28;12.80;99.20
42085;DHT22;27746;52.228;20.890;2022-10-13T07:49:55;13.00;98.60
42085;DHT22;27746;52.228;20.890;2022-10-13T07:52:22;13.10;98.20
42085;DHT22;27746;52.228;20.890;2022-10-13T07:54:49;13.10;97.90
42085;DHT22;27746;52.228;20.890;2022-10-13T07:57:16;13.20;97.70
42085;DHT22;27746;52.228;20.890;2022-10-13T07:59:43;13.30;97.20
42085;DHT22;27746;52.228;20.890;2022-10-13T08:02:12;13.30;97.10
42085;DHT22;27746;52.228;20.890;2022-10-13T08:04:39;13.40;97.00
42085;DHT22;27746;52.228;20.890;2022-10-13T08:07:06;13.50;96.40
42085;DHT22;27746;52.228;20.890;2022-10-13T08:09:33;13.60;96.10
42085;DHT22;27746;52.228;20.890;2022-10-13T08:12:00;13.70;96.40
42085;DHT22;27746;52.228;20.890;2022-10-13T08:14:27;13.70;95.60
42085;DHT22;27746;52.228;20.890;2022-10-13T08:16:54;13.60;96.10
42085;DHT22;27746;52.228;20.890;2022-10-13T08:19:23;13.70;95.40
42085;DHT22;27746;52.228;20.890;2022-10-13T08:21:51;13.80;94.80
42085;DHT22;27746;52.228;20.890;2022-10-13T08:24:18;13.80;94.90
42085;DHT22;27746;52.228;20.890;2022-10-13T08:26:47;13.90;94.70
42085;DHT22;27746;52.228;20.890;2022-10-13T08:29:15;13.90;94.70
42085;DHT22;27746;52.228;20.890;2022-10-13T08:31:42;13.90;94.50
42085;DHT22;27746;52.228;20.890;2022-10-13T08:34:10;14.00;94.40
42085;DHT22;27746;52.228;20.890;2022-10-13T08:36:38;14.00;94.50
42085;DHT22;27746;52.228;20.890;2022-10-13T08:39:06;14.20;95.40
42085;DHT22;27746;52.228;20.890;2022-10-13T08:41:36;14.40;94.80
42085;DHT22;27746;52.228;20.890;2022-10-13T08:44:05;14.50;92.90
42085;DHT22;27746;52.228;20.890;2022-10-13T08:46:38;14.70;92.80
42085;DHT22;27746;52.228;20.890;2022-10-13T08:49:08;14.80;92.40
42085;DHT22;27746;52.228;20.890;2022-10-13T08:51:35;14.70;91.70
42085;DHT22;27746;52.228;20.890;2022-10-13T08:54:03;14.80;91.50
42085;DHT22;27746;52.228;20.890;2022-10-13T08:56:33;15.00;90.80
42085;DHT22;27746;52.228;20.890;2022-10-13T08:59:02;15.00;90.90
42085;DHT22;27746;52.228;20.890;2022-10-13T09:01:31;15.10;90.40
42085;DHT22;27746;52.228;20.890;2022-10-13T09:04:10;15.10;89.60
42085;DHT22;27746;52.228;20.890;2022-10-13T09:06:40;15.10;90.30
42085;DHT22;27746;52.228;20.890;2022-10-13T09:09:11;15.30;90.40
42085;DHT22;27746;52.228;20.890;2022-10-13T09:11:41;15.50;89.10
42085;DHT22;27746;52.228;20.890;2022-10-13T09:14:10;15.80;87.80
42085;DHT22;27746;52.228;20.890;2022-10-13T09:16:40;15.90;88.10
42085;DHT22;27746;52.228;20.890;2022-10-13T09:19:14;16.10;87.10
42085;DHT22;27746;52.228;20.890;2022-10-13T09:21:43;16.30;83.90
42085;DHT22;27746;52.228;20.890;2022-10-13T09:24:14;16.60;82.60
42085;DHT22;27746;52.228;20.890;2022-10-13T09:26:42;17.00;81.10
42085;DHT22;27746;52.228;20.890;2022-10-13T09:29:13;17.60;79.20
42085;DHT22;27746;52.228;20.890;2022-10-13T09:31:41;18.40;77.00
42085;DHT22;27746;52.228;20.890;2022-10-13T09:34:13;19.50;73.30
42085;DHT22;27746;52.228;20.890;2022-10-13T09:36:55;20.50;69.60
42085;DHT22;27746;52.228;20.890;2022-10-13T09:39:23;22.10;65.60
42085;DHT22;27746;52.228;20.890;2022-10-13T09:41:51;23.50;60.80
42085;DHT22;27746;52.228;20.890;2022-10-13T09:44:27;24.50;57.80
42085;DHT22;27746;52.228;20.890;2022-10-13T09:46:56;25.60;55.20
42085;DHT22;27746;52.228;20.890;2022-10-13T09:49:30;26.30;53.10
42085;DHT22;27746;52.228;20.890;2022-10-13T09:52:00;27.10;51.40
42085;DHT22;27746;52.228;20.890;2022-10-13T09:54:37;27.60;50.10
42085;DHT22;27746;52.228;20.890;2022-10-13T09:57:13;28.40;49.20
42085;DHT22;27746;52.228;20.890;2022-10-13T09:59:45;29.30;47.70
42085;DHT22;27746;52.228;20.890;2022-10-13T10:02:19;29.70;46.80
42085;DHT22;27746;52.228;20.890;2022-10-13T10:04:46;29.50;45.80
42085;DHT22;27746;52.228;20.890;2022-10-13T10:07:18;30.00;45.40
42085;DHT22;27746;52.228;20.890;2022-10-13T10:09:50;30.70;44.60
42085;DHT22;27746;52.228;20.890;2022-10-13T10:12:20;29.80;44.50
42085;DHT22;27746;52.228;20.890;2022-10-13T10:14:49;29.70;44.90
42085;DHT22;27746;52.228;20.890;2022-10-13T10:17:22;30.00;44.60
42085;DHT22;27746;52.228;20.890;2022-10-13T10:19:58;30.60;44.10
42085;DHT22;27746;52.228;20.890;2022-10-13T10:22:34;31.30;43.30
42085;DHT22;27746;52.228;20.890;2022-10-13T10:25:16;31.70;42.90
42085;DHT22;27746;52.228;20.890;2022-10-13T10:27:49;31.90;42.20
42085;DHT22;27746;52.228;20.890;2022-10-13T10:30:19;30.60;42.70
42085;DHT22;27746;52.228;20.890;2022-10-13T10:32:52;31.10;42.90
42085;DHT22;27746;52.228;20.890;2022-10-13T10:35:26;31.00;42.00
42085;DHT22;27746;52.228;20.890;2022-10-13T10:38:09;31.60;41.90
42085;DHT22;27746;52.228;20.890;2022-10-13T10:40:48;32.50;41.40
42085;DHT22;27746;52.228;20.890;2022-10-13T10:43:29;32.70;40.60
42085;DHT22;27746;52.228;20.890;2022-10-13T10:45:59;31.90;40.40
42085;DHT22;27746;52.228;20.890;2022-10-13T10:48:29;32.10;40.50
42085;DHT22;27746;52.228;20.890;2022-10-13T10:50:59;31.60;40.70
42085;DHT22;27746;52.228;20.890;2022-10-13T10:53:32;32.10;40.90
42085;DHT22;27746;52.228;20.890;2022-10-13T10:56:08;32.30;40.10
42085;DHT22;27746;52.228;20.890;2022-10-13T10:58:43;31.90;40.40
42085;DHT22;27746;52.228;20.890;2022-10-13T11:01:23;31.60;40.60
42085;DHT22;27746;52.228;20.890;2022-10-13T11:03:56;32.30;40.90
42085;DHT22;27746;52.228;20.890;2022-10-13T11:06:31;32.80;40.20
42085;DHT22;27746;52.228;20.890;2022-10-13T11:09:00;33.20;39.80
42085;DHT22;27746;52.228;20.890;2022-10-13T11:11:49;32.70;40.00
42085;DHT22;27746;52.228;20.890;2022-10-13T11:14:31;32.20;40.00
42085;DHT22;27746;52.228;20.890;2022-10-13T11:19:45;31.20;40.30
42085;DHT22;27746;52.228;20.890;2022-10-13T11:22:17;31.80;40.70
42085;DHT22;27746;52.228;20.890;2022-10-13T11:27:52;31.00;40.30
42085;DHT22;27746;52.228;20.890;2022-10-13T11:33:52;31.00;40.60
42085;DHT22;27746;52.228;20.890;2022-10-13T11:36:54;30.40;40.70
42085;DHT22;27746;52.228;20.890;2022-10-13T11:45:39;31.40;40.50
42085;DHT22;27746;52.228;20.890;2022-10-13T11:51:24;31.80;40.30
42085;DHT22;27746;52.228;20.890;2022-10-13T11:54:03;31.70;39.80
42085;DHT22;27746;52.228;20.890;2022-10-13T11:56:33;31.90;40.10
42085;DHT22;27746;52.228;20.890;2022-10-13T11:59:00;32.40;40.00
42085;DHT22;27746;52.228;20.890;2022-10-13T12:01:28;32.70;39.70
42085;DHT22;27746;52.228;20.890;2022-10-13T12:03:55;33.00;39.80
42085;DHT22;27746;52.228;20.890;2022-10-13T12:06:27;33.40;39.50
42085;DHT22;27746;52.228;20.890;2022-10-13T12:09:02;33.50;39.10
42085;DHT22;27746;52.228;20.890;2022-10-13T12:11:31;33.30;38.70
42085;DHT22;27746;52.228;20.890;2022-10-13T12:13:59;32.40;39.40
42085;DHT22;27746;52.228;20.890;2022-10-13T12:16:28;32.30;39.70
42085;DHT22;27746;52.228;20.890;2022-10-13T12:19:06;32.30;40.10
42085;DHT22;27746;52.228;20.890;2022-10-13T12:21:33;32.60;40.10
42085;DHT22;27746;52.228;20.890;2022-10-13T12:24:08;32.80;39.60
42085;DHT22;27746;52.228;20.890;2022-10-13T12:26:36;32.20;39.70
42085;DHT22;27746;52.228;20.890;2022-10-13T12:29:10;32.30;40.00
42085;DHT22;27746;52.228;20.890;2022-10-13T12:31:41;32.10;39.90
42085;DHT22;27746;52.228;20.890;2022-10-13T12:34:18;32.10;40.00
42085;DHT22;27746;52.228;20.890;2022-10-13T12:36:51;31.70;40.10
42085;DHT22;27746;52.228;20.890;2022-10-13T12:39:19;31.40;40.60
42085;DHT22;27746;52.228;20.890;2022-10-13T12:41:47;31.80;40.20
42085;DHT22;27746;52.228;20.890;2022-10-13T12:44:18;32.10;40.30
42085;DHT22;27746;52.228;20.890;2022-10-13T12:46:48;32.40;40.40
42085;DHT22;27746;52.228;20.890;2022-10-13T12:49:20;32.20;40.20
42085;DHT22;27746;52.228;20.890;2022-10-13T12:51:48;32.60;40.30
42085;DHT22;27746;52.228;20.890;2022-10-13T12:54:22;32.00;40.20
42085;DHT22;27746;52.228;20.890;2022-10-13T12:56:52;32.30;40.50
42085;DHT22;27746;52.228;20.890;2022-10-13T12:59:21;31.70;40.40
42085;DHT22;27746;52.228;20.890;2022-10-13T13:01:55;32.00;40.70
42085;DHT22;27746;52.228;20.890;2022-10-13T13:04:41;32.50;40.40
42085;DHT22;27746;52.228;20.890;2022-10-13T13:07:26;31.30;40.30
42085;DHT22;27746;52.228;20.890;2022-10-13T13:10:15;30.50;41.90
42085;DHT22;27746;52.228;20.890;2022-10-13T13:12:42;30.60;42.10
42085;DHT22;27746;52.228;20.890;2022-10-13T13:15:29;30.30;42.20
42085;DHT22;27746;52.228;20.890;2022-10-13T13:18:29;30.30;42.20
42085;DHT22;27746;52.228;20.890;2022-10-13T13:20:57;30.40;42.30
42085;DHT22;27746;52.228;20.890;2022-10-13T13:23:26;30.70;42.30
42085;DHT22;27746;52.228;20.890;2022-10-13T13:25:59;30.20;42.60
42085;DHT22;27746;52.228;20.890;2022-10-13T13:28:28;30.40;42.50
42085;DHT22;27746;52.228;20.890;2022-10-13T13:30:55;29.90;42.80
42085;DHT22;27746;52.228;20.890;2022-10-13T13:33:24;29.90;43.00
42085;DHT22;27746;52.228;20.890;2022-10-13T13:35:51;30.10;43.00
42085;DHT22;27746;52.228;20.890;2022-10-13T13:38:18;29.60;43.20
42085;DHT22;27746;52.228;20.890;2022-10-13T13:40:45;29.60;43.70
42085;DHT22;27746;52.228;20.890;2022-10-13T13:43:12;29.60;43.40
42085;DHT22;27746;52.228;20.890;2022-10-13T13:45:39;29.60;43.70
42085;DHT22;27746;52.228;20.890;2022-10-13T13:48:07;29.50;43.90
42085;DHT22;27746;52.228;20.890;2022-10-13T13:50:36;28.20;44.70
42085;DHT22;27746;52.228;20.890;2022-10-13T13:53:04;26.20;46.50
42085;DHT22;27746;52.228;20.890;2022-10-13T13:55:31;25.20;48.40
42085;DHT22;27746;52.228;20.890;2022-10-13T13:57:58;24.10;49.70
42085;DHT22;27746;52.228;20.890;2022-10-13T14:00:25;23.10;51.40
42085;DHT22;27746;52.228;20.890;2022-10-13T14:02:52;21.90;53.50
42085;DHT22;27746;52.228;20.890;2022-10-13T14:05:19;21.30;54.70
42085;DHT22;27746;52.228;20.890;2022-10-13T14:07:47;20.80;55.80
42085;DHT22;27746;52.228;20.890;2022-10-13T14:10:15;20.50;56.60
42085;DHT22;27746;52.228;20.890;2022-10-13T14:12:42;20.00;58.00
42085;DHT22;27746;52.228;20.890;2022-10-13T14:15:09;19.70;58.40
42085;DHT22;27746;52.228;20.890;2022-10-13T14:17:36;19.30;59.30
42085;DHT22;27746;52.228;20.890;2022-10-13T14:20:04;18.60;61.00
42085;DHT22;27746;52.228;20.890;2022-10-13T14:22:31;18.20;62.60
42085;DHT22;27746;52.228;20.890;2022-10-13T14:24:59;18.00;63.30
42085;DHT22;27746;52.228;20.890;2022-10-13T14:27:26;17.80;63.70
42085;DHT22;27746;52.228;20.890;2022-10-13T14:29:53;17.60;64.10
42085;DHT22;27746;52.228;20.890;2022-10-13T14:32:20;17.40;64.70
42085;DHT22;27746;52.228;20.890;2022-10-13T14:34:47;17.20;65.10
42085;DHT22;27746;52.228;20.890;2022-10-13T14:37:14;17.00;65.80
42085;DHT22;27746;52.228;20.890;2022-10-13T14:39:40;16.90;66.30
42085;DHT22;27746;52.228;20.890;2022-10-13T14:42:09;16.70;67.10
42085;DHT22;27746;52.228;20.890;2022-10-13T14:44:36;16.60;67.20
42085;DHT22;27746;52.228;20.890;2022-10-13T14:47:03;16.50;67.70
42085;DHT22;27746;52.228;20.890;2022-10-13T14:49:31;16.40;68.00
42085;DHT22;27746;52.228;20.890;2022-10-13T14:51:58;16.30;68.30
42085;DHT22;27746;52.228;20.890;2022-10-13T14:54:25;16.10;68.90
42085;DHT22;27746;52.228;20.890;2022-10-13T14:56:52;16.00;69.30
42085;DHT22;27746;52.228;20.890;2022-10-13T14:59:20;15.90;69.90
42085;DHT22;27746;52.228;20.890;2022-10-13T15:01:47;15.80;70.20
42085;DHT22;27746;52.228;20.890;2022-10-13T15:04:14;15.70;70.70
42085;DHT22;27746;52.228;20.890;2022-10-13T15:06:41;15.50;71.00
42085;DHT22;27746;52.228;20.890;2022-10-13T15:09:09;15.40;71.50
42085;DHT22;27746;52.228;20.890;2022-10-13T15:11:36;15.30;72.10
42085;DHT22;27746;52.228;20.890;2022-10-13T15:14:03;15.20;72.50
42085;DHT22;27746;52.228;20.890;2022-10-13T15:16:33;15.10;72.90
42085;DHT22;27746;52.228;20.890;2022-10-13T15:19:02;15.00;73.20
42085;DHT22;27746;52.228;20.890;2022-10-13T15:21:29;14.90;73.20
42085;DHT22;27746;52.228;20.890;2022-10-13T15:23:57;13.70;73.10
42085;DHT22;27746;52.228;20.890;2022-10-13T15:26:24;14.90;74.00
42085;DHT22;27746;52.228;20.890;2022-10-13T15:28:52;14.80;74.20
42085;DHT22;27746;52.228;20.890;2022-10-13T15:31:20;14.80;74.40
42085;DHT22;27746;52.228;20.890;2022-10-13T15:33:52;14.70;74.70
42085;DHT22;27746;52.228;20.890;2022-10-13T15:36:22;15.10;75.30
42085;DHT22;27746;52.228;20.890;2022-10-13T15:38:50;14.50;75.20
42085;DHT22;27746;52.228;20.890;2022-10-13T15:41:17;14.50;75.50
42085;DHT22;27746;52.228;20.890;2022-10-13T15:43:47;14.40;75.70
42085;DHT22;27746;52.228;20.890;2022-10-13T15:46:15;14.40;76.00
42085;DHT22;27746;52.228;20.890;2022-10-13T15:48:50;14.40;76.40
42085;DHT22;27746;52.228;20.890;2022-10-13T15:51:19;14.20;76.80
42085;DHT22;27746;52.228;20.890;2022-10-13T15:53:47;14.20;77.00
42085;DHT22;27746;52.228;20.890;2022-10-13T15:56:15;14.10;77.20
42085;DHT22;27746;52.228;20.890;2022-10-13T15:58:42;14.10;77.60